Time;durP1;ratioP1;P1;durP2;ratioP2;P2;SDS_P1;SDS_P2;PMS_P1;PMS_P2;Temp;Humidity;BMP_temperature;BMP_pressure;BME280_temperature;BME280_humidity;BME280_pressure;Samples;Min_cycle;Max_cycle;Signal;HPM_P1;HPM_P2
2023/12/23 10:57:34;;;;;;;11.60;1.80;;;8.50;99.90;;;;;;5065926;27;20193;-50
2023/12/23 11:00:01;;;;;;;39.45;4.10;;;8.80;99.90;;;;;;5056223;28;20429;-49
2023/12/23 11:04:39;;;;;;;17.02;2.35;;;10.00;99.90;;;;;;5076373;27;20570;-54
2023/12/23 11:07:08;;;;;;;12.68;1.92;;;10.80;99.90;;;;;;5067961;28;20057;-58
2023/12/23 11:09:36;;;;;;;14.10;1.60;;;11.60;99.90;;;;;;5061086;28;20056;-57
2023/12/23 11:12:03;;;;;;;10.98;1.20;;;12.40;99.90;;;;;;5063522;28;20511;-58
2023/12/23 11:14:30;;;;;;;9.52;1.10;;;13.20;99.90;;;;;;5060287;28;20047;-55
2023/12/23 11:16:58;;;;;;;7.85;0.82;;;14.00;99.90;;;;;;5064693;28;20056;-57
2023/12/23 11:19:26;;;;;;;3.28;0.93;;;14.60;99.90;;;;;;5061510;28;20075;-57
2023/12/23 11:22:22;;;;;;;4.47;1.15;;;15.30;99.90;;;;;;5033401;28;20061;-57
2023/12/23 11:24:49;;;;;;;5.13;0.80;;;15.90;99.90;;;;;;5019759;28;20718;-56
2023/12/23 11:27:31;;;;;;;2.60;0.75;;;16.50;99.90;;;;;;5021587;28;20482;-56
2023/12/23 11:30:00;;;;;;;9.55;1.08;;;17.00;99.90;;;;;;5024381;28;20080;-57
2023/12/23 11:32:34;;;;;;;3.42;0.80;;;17.40;99.90;;;;;;5026083;28;20076;-56
2023/12/23 11:35:01;;;;;;;2.00;0.65;;;17.80;95.60;;;;;;5025148;28;20567;-56
2023/12/23 11:37:49;;;;;;;5.18;0.82;;;18.10;95.50;;;;;;5024485;28;20061;-57
2023/12/23 11:40:16;;;;;;;9.23;0.88;;;18.50;87.00;;;;;;5025694;28;20046;-57
2023/12/23 11:42:44;;;;;;;1.83;0.70;;;18.80;89.90;;;;;;5026873;28;20065;-57
2023/12/23 11:45:12;;;;;;;1.83;0.70;;;19.20;84.70;;;;;;5023720;28;20057;-56
2023/12/23 11:47:39;;;;;;;3.40;0.70;;;19.40;79.90;;;;;;5017695;28;20429;-57
2023/12/23 11:50:08;;;;;;;2.45;0.95;;;19.60;76.30;;;;;;5016496;28;20061;-57
2023/12/23 11:52:35;;;;;;;2.20;0.70;;;19.90;72.80;;;;;;5024126;28;20080;-57
2023/12/23 11:55:05;;;;;;;1.55;0.47;;;20.10;70.40;;;;;;5021420;28;20414;-57
2023/12/23 11:57:32;;;;;;;4.95;1.20;;;20.40;67.30;;;;;;5019583;28;20065;-56
2023/12/23 12:00:00;;;;;;;26.55;15.07;;;20.60;66.40;;;;;;5015505;28;20380;-57
2023/12/23 12:02:27;;;;;;;85.45;43.72;;;20.70;64.90;;;;;;5019290;28;20437;-57
2023/12/23 12:04:54;;;;;;;113.47;60.88;;;20.90;63.40;;;;;;5022975;28;20057;-56
2023/12/23 12:07:22;;;;;;;147.52;80.90;;;21.00;61.90;;;;;;5021348;28;20062;-57
2023/12/23 12:09:51;;;;;;;89.70;48.90;;;21.10;60.30;;;;;;5021427;28;20072;-57
2023/12/23 12:12:19;;;;;;;36.25;19.83;;;21.30;59.00;;;;;;5020000;28;20065;-57
2023/12/23 12:14:47;;;;;;;23.50;11.93;;;21.30;58.30;;;;;;5016232;28;20426;-58
2023/12/23 12:17:14;;;;;;;15.70;8.57;;;21.40;58.10;;;;;;5004378;28;20057;-56
2023/12/23 12:19:41;;;;;;;11.75;6.68;;;21.50;57.60;;;;;;5011060;28;20058;-57
2023/12/23 12:22:09;;;;;;;14.48;6.00;;;21.60;57.00;;;;;;5010097;28;20496;-57
2023/12/23 12:24:37;;;;;;;11.85;6.00;;;21.60;56.50;;;;;;5010514;28;20045;-57
2023/12/23 12:27:05;;;;;;;8.77;5.00;;;21.60;56.10;;;;;;5011073;28;20053;-54
2023/12/23 12:29:34;;;;;;;8.60;4.07;;;21.70;55.70;;;;;;5008765;28;20061;-57
2023/12/23 12:32:01;;;;;;;6.53;3.40;;;21.70;54.90;;;;;;5010185;28;20050;-56
2023/12/23 12:34:29;;;;;;;5.82;2.80;;;21.80;54.80;;;;;;5010118;28;20054;-56
2023/12/23 12:36:57;;;;;;;6.70;3.10;;;21.80;54.40;;;;;;5010044;28;20501;-57
2023/12/23 12:39:26;;;;;;;4.35;2.55;;;21.80;53.90;;;;;;5010605;28;20050;-56
2023/12/23 12:41:53;;;;;;;5.90;2.60;;;21.90;53.70;;;;;;5011310;28;20058;-57
2023/12/23 12:44:22;;;;;;;4.65;2.05;;;21.80;53.40;;;;;;5009721;28;20050;-57
2023/12/23 12:46:58;;;;;;;3.50;1.70;;;21.90;53.10;;;;;;5010440;28;20053;-57
2023/12/23 12:49:25;;;;;;;3.97;1.95;;;21.90;52.00;;;;;;5007608;28;20057;-56
2023/12/23 12:51:53;;;;;;;3.72;1.95;;;21.90;52.70;;;;;;5010009;28;20046;-57
2023/12/23 12:54:23;;;;;;;4.45;2.00;;;21.90;52.40;;;;;;5009778;28;20065;-57
2023/12/23 12:56:50;;;;;;;3.75;1.50;;;21.90;52.10;;;;;;5009496;28;20054;-57
2023/12/23 12:59:18;;;;;;;5.03;1.60;;;21.90;51.90;;;;;;5009430;28;20050;-58
2023/12/23 13:01:45;;;;;;;3.47;1.55;;;21.90;51.60;;;;;;5008750;28;20038;-58
2023/12/23 13:04:14;;;;;;;2.53;1.23;;;21.90;52.00;;;;;;5010566;28;20437;-56
2023/12/23 13:06:42;;;;;;;3.25;1.30;;;21.90;51.10;;;;;;5009926;28;20527;-57
2023/12/23 13:09:09;;;;;;;7.85;2.20;;;21.90;51.10;;;;;;5009542;28;20486;-57
2023/12/23 13:11:37;;;;;;;9.57;4.30;;;21.90;51.00;;;;;;5010144;28;20065;-56
2023/12/23 13:14:04;;;;;;;8.82;4.10;;;21.90;50.80;;;;;;5008668;28;20073;-56
2023/12/23 13:16:31;;;;;;;7.30;3.13;;;21.90;50.70;;;;;;5010310;28;20058;-57
2023/12/23 13:18:58;;;;;;;6.15;2.80;;;21.90;50.60;;;;;;5010266;28;20406;-57
2023/12/23 13:21:27;;;;;;;7.75;3.15;;;22.00;50.60;;;;;;5009732;28;20053;-57
2023/12/23 13:23:54;;;;;;;6.35;2.60;;;22.00;50.20;;;;;;5008765;28;20056;-56
2023/12/23 13:26:22;;;;;;;5.78;2.95;;;22.10;50.20;;;;;;5007938;28;20517;-57
2023/12/23 13:28:49;;;;;;;5.22;2.15;;;22.10;50.00;;;;;;5010783;28;20050;-57
2023/12/23 13:31:17;;;;;;;3.80;1.88;;;22.20;49.80;;;;;;5010052;28;20056;-57
2023/12/23 13:33:44;;;;;;;6.03;2.20;;;22.20;49.70;;;;;;5010105;28;20041;-57
2023/12/23 13:36:12;;;;;;;4.57;2.00;;;22.30;49.50;;;;;;5004067;28;20058;-57
2023/12/23 13:38:43;;;;;;;13.77;2.58;;;22.30;49.40;;;;;;5005758;28;20050;-58
2023/12/23 13:41:15;;;;;;;7.10;2.33;;;22.40;49.10;;;;;;5008618;28;20065;-58
2023/12/23 13:43:42;;;;;;;7.45;2.22;;;22.40;49.20;;;;;;5009017;28;20426;-58
2023/12/23 13:46:09;;;;;;;13.48;2.50;;;22.50;49.10;;;;;;5008921;28;20053;-58
2023/12/23 13:48:36;;;;;;;24.25;2.55;;;22.50;49.00;;;;;;5009370;28;20060;-58
2023/12/23 13:51:04;;;;;;;5.75;2.05;;;22.50;48.90;;;;;;5003984;28;20050;-58
2023/12/23 13:53:31;;;;;;;16.80;2.33;;;22.50;48.90;;;;;;5007054;28;20054;-57
2023/12/23 13:56:00;;;;;;;17.92;2.10;;;22.60;48.70;;;;;;5005728;28;20056;-55
2023/12/23 13:58:27;;;;;;;10.70;1.98;;;22.60;49.00;;;;;;5007877;28;20064;-55
2023/12/23 14:00:55;;;;;;;15.60;1.80;;;22.60;48.50;;;;;;5006417;28;20073;-56
2023/12/23 14:03:22;;;;;;;11.32;1.67;;;22.60;48.40;;;;;;5004832;28;20060;-54
2023/12/23 14:05:50;;;;;;;7.00;1.67;;;22.60;48.30;;;;;;5003870;28;20073;-56
2023/12/23 14:08:17;;;;;;;4.65;1.42;;;22.60;48.20;;;;;;5004079;28;20065;-56
2023/12/23 14:10:45;;;;;;;5.35;1.08;;;22.60;48.10;;;;;;5005210;28;20053;-56
2023/12/23 14:13:13;;;;;;;5.13;1.50;;;22.60;48.00;;;;;;5007149;28;20057;-56
2023/12/23 14:15:41;;;;;;;4.85;1.20;;;22.60;47.70;;;;;;5005552;28;20046;-57
2023/12/23 14:18:09;;;;;;;4.88;1.10;;;22.60;47.80;;;;;;5009217;28;20053;-57
2023/12/23 14:20:37;;;;;;;3.85;1.05;;;22.60;47.60;;;;;;5002126;28;20410;-55
2023/12/23 14:23:04;;;;;;;1.80;0.90;;;22.60;47.60;;;;;;5005289;28;20058;-57
2023/12/23 14:25:33;;;;;;;2.35;0.82;;;22.60;47.50;;;;;;5006175;28;20410;-59
2023/12/23 14:28:00;;;;;;;5.82;0.90;;;22.50;47.40;;;;;;5004604;28;20057;-59
2023/12/23 14:30:28;;;;;;;3.33;1.00;;;22.50;47.30;;;;;;5004468;28;20053;-56
2023/12/23 14:32:56;;;;;;;2.63;0.95;;;22.50;47.10;;;;;;5002376;28;20057;-57
2023/12/23 14:35:23;;;;;;;2.30;0.70;;;22.50;47.20;;;;;;5004534;28;20058;-57
2023/12/23 14:37:50;;;;;;;2.15;0.85;;;22.50;47.10;;;;;;5005242;28;20050;-58
2023/12/23 14:40:18;;;;;;;7.78;1.10;;;22.50;47.10;;;;;;5002825;28;20065;-53
2023/12/23 14:42:45;;;;;;;10.90;1.33;;;22.40;46.60;;;;;;5003648;28;20541;-58
2023/12/23 14:45:13;;;;;;;3.85;1.20;;;22.40;46.60;;;;;;5004636;28;20479;-58
2023/12/23 14:47:44;;;;;;;6.32;2.83;;;22.30;46.20;;;;;;5002302;28;20663;-58
2023/12/23 14:50:11;;;;;;;9.48;2.92;;;22.30;46.00;;;;;;5004294;28;20050;-58
2023/12/23 14:52:39;;;;;;;6.15;2.53;;;22.20;46.30;;;;;;5003083;28;20049;-57
2023/12/23 14:55:07;;;;;;;6.10;2.00;;;22.20;46.50;;;;;;5002077;28;20056;-57
2023/12/23 14:57:34;;;;;;;4.95;1.70;;;22.20;46.30;;;;;;5002990;28;20058;-58
2023/12/23 15:00:02;;;;;;;3.95;1.88;;;22.10;46.20;;;;;;5003207;28;20049;-58
2023/12/23 15:02:29;;;;;;;9.32;2.03;;;22.10;46.40;;;;;;5000688;28;20434;-56
2023/12/23 15:04:58;;;;;;;5.63;1.85;;;22.10;46.40;;;;;;5002455;28;20041;-57
2023/12/23 15:07:25;;;;;;;5.18;1.52;;;22.10;46.40;;;;;;5004971;28;20046;-58
2023/12/23 15:09:52;;;;;;;4.07;1.70;;;22.20;46.70;;;;;;5003039;28;20057;-58
2023/12/23 15:12:19;;;;;;;8.30;1.60;;;22.20;46.60;;;;;;5002655;28;20046;-55
2023/12/23 15:14:47;;;;;;;7.43;1.83;;;22.20;46.70;;;;;;5002313;28;20042;-57
2023/12/23 15:17:16;;;;;;;4.22;1.63;;;22.30;46.70;;;;;;5005186;28;20057;-59
2023/12/23 15:19:43;;;;;;;5.25;1.50;;;22.30;46.50;;;;;;5001940;28;20065;-57
2023/12/23 15:22:12;;;;;;;8.00;1.30;;;22.40;46.70;;;;;;5003303;28;20401;-57
2023/12/23 15:24:39;;;;;;;3.20;1.30;;;22.40;46.50;;;;;;5002732;28;20057;-55
2023/12/23 15:27:06;;;;;;;9.80;1.75;;;22.50;46.70;;;;;;4999025;28;20435;-56
2023/12/23 15:29:33;;;;;;;6.10;1.40;;;22.50;46.60;;;;;;5004084;28;20050;-57
2023/12/23 15:32:01;;;;;;;8.45;1.30;;;22.60;46.50;;;;;;5006501;28;20045;-57
2023/12/23 15:34:28;;;;;;;6.28;1.38;;;22.60;46.40;;;;;;5005356;28;20069;-56
2023/12/23 15:36:55;;;;;;;4.80;1.20;;;22.60;46.30;;;;;;5005097;28;20057;-56
2023/12/23 15:39:24;;;;;;;7.20;1.60;;;22.70;46.30;;;;;;5006082;28;20061;-57
2023/12/23 15:41:51;;;;;;;5.50;1.50;;;22.70;46.20;;;;;;5002291;28;20058;-54
2023/12/23 15:44:18;;;;;;;4.40;1.13;;;22.70;46.20;;;;;;5004745;28;20069;-56
2023/12/23 15:46:46;;;;;;;4.10;1.20;;;22.70;46.20;;;;;;5006185;28;20049;-56
2023/12/23 15:49:13;;;;;;;2.38;1.02;;;22.70;46.10;;;;;;5003665;28;20061;-56
2023/12/23 15:51:40;;;;;;;7.20;1.38;;;22.80;46.10;;;;;;5007173;28;20049;-56
2023/12/23 15:54:09;;;;;;;3.70;1.52;;;22.80;46.00;;;;;;5006038;28;20068;-55
2023/12/23 15:56:39;;;;;;;7.93;1.92;;;22.80;46.00;;;;;;5002321;28;20050;-56
2023/12/23 15:59:07;;;;;;;3.78;2.00;;;22.80;45.80;;;;;;5004499;28;20046;-57
2023/12/23 16:01:35;;;;;;;8.52;2.17;;;22.80;45.90;;;;;;5004340;28;20050;-56
2023/12/23 16:04:02;;;;;;;5.25;1.83;;;22.80;45.90;;;;;;5000734;28;20406;-57
2023/12/23 16:06:29;;;;;;;4.35;1.95;;;22.80;45.80;;;;;;5007806;28;20422;-55
2023/12/23 16:08:56;;;;;;;3.83;1.80;;;22.80;45.80;;;;;;5004964;28;20482;-56
2023/12/23 16:11:24;;;;;;;3.97;1.63;;;22.70;45.70;;;;;;5007241;28;20399;-56
2023/12/23 16:13:52;;;;;;;6.65;1.40;;;22.80;45.80;;;;;;5007923;28;20049;-56
2023/12/23 16:16:20;;;;;;;5.38;1.50;;;22.70;45.60;;;;;;5006049;28;20430;-56
2023/12/23 16:18:47;;;;;;;5.28;1.70;;;22.70;45.60;;;;;;5007779;28;20053;-56
2023/12/23 16:21:14;;;;;;;4.13;1.45;;;22.70;45.60;;;;;;5005883;28;20073;-56
2023/12/23 16:23:42;;;;;;;5.07;1.40;;;22.70;45.60;;;;;;5004470;28;20862;-58
2023/12/23 16:26:14;;;;;;;2.72;1.30;;;22.70;45.60;;;;;;5005000;28;20073;-55
2023/12/23 16:28:41;;;;;;;3.20;1.48;;;22.70;45.20;;;;;;5007080;28;20053;-56
2023/12/23 16:31:10;;;;;;;3.88;1.45;;;22.70;45.60;;;;;;5003950;28;20057;-56
2023/12/23 16:33:37;;;;;;;8.48;1.63;;;22.60;45.40;;;;;;5006772;28;20061;-56
2023/12/23 16:36:07;;;;;;;3.20;1.08;;;22.60;45.50;;;;;;5007135;28;20048;-57
2023/12/23 16:38:34;;;;;;;5.43;1.27;;;22.60;45.50;;;;;;5005631;28;20422;-57
2023/12/23 16:41:01;;;;;;;3.78;1.38;;;22.60;45.60;;;;;;5007751;28;20050;-56
2023/12/23 16:43:28;;;;;;;6.38;1.33;;;22.60;45.60;;;;;;5006002;28;20072;-54
2023/12/23 16:45:56;;;;;;;3.95;1.20;;;22.60;45.50;;;;;;5005738;28;20050;-55
2023/12/23 16:48:24;;;;;;;3.15;1.30;;;22.50;45.40;;;;;;5004231;28;20061;-57
2023/12/23 16:50:52;;;;;;;8.43;1.58;;;22.50;45.30;;;;;;5004107;28;20053;-57
2023/12/23 16:53:19;;;;;;;3.60;1.33;;;22.50;45.40;;;;;;5007948;28;20046;-57
2023/12/23 16:55:46;;;;;;;4.97;1.38;;;22.50;45.40;;;;;;5003851;28;20056;-57
2023/12/23 16:58:14;;;;;;;9.57;1.70;;;22.50;45.40;;;;;;5005361;28;20054;-57
2023/12/23 17:00:41;;;;;;;4.10;1.30;;;22.50;45.30;;;;;;5005326;28;20406;-59
2023/12/23 17:03:08;;;;;;;4.30;1.70;;;22.40;45.30;;;;;;5004359;28;20054;-58
2023/12/23 17:05:37;;;;;;;4.60;1.75;;;22.40;45.30;;;;;;4999301;28;20486;-56
2023/12/23 17:08:06;;;;;;;9.38;2.08;;;22.40;45.30;;;;;;5006788;28;20049;-55
2023/12/23 17:10:33;;;;;;;6.35;2.35;;;22.40;45.40;;;;;;5007515;28;20056;-62
2023/12/23 17:13:01;;;;;;;13.80;4.07;;;22.40;45.50;;;;;;5006899;28;20501;-66
2023/12/23 17:15:28;;;;;;;14.93;5.45;;;22.30;45.40;;;;;;5006007;28;20397;-59
2023/12/23 17:17:55;;;;;;;14.52;5.00;;;22.30;45.60;;;;;;5005407;28;20061;-58
2023/12/23 17:20:23;;;;;;;9.43;4.63;;;22.30;45.60;;;;;;5007249;28;20061;-58
2023/12/23 17:22:53;;;;;;;16.42;5.70;;;22.30;45.60;;;;;;5005198;28;20050;-56
2023/12/23 17:25:21;;;;;;;19.60;6.25;;;22.30;45.60;;;;;;5005260;28;20058;-55
2023/12/23 17:27:48;;;;;;;21.05;6.38;;;22.40;45.80;;;;;;5005439;28;20073;-54
2023/12/23 17:30:16;;;;;;;17.23;5.70;;;22.40;46.00;;;;;;5004435;28;20073;-58
2023/12/23 17:32:43;;;;;;;14.88;5.15;;;22.50;46.10;;;;;;5005227;28;20085;-57
2023/12/23 17:35:10;;;;;;;12.95;5.63;;;22.50;46.10;;;;;;5003947;28;20402;-57
2023/12/23 17:37:38;;;;;;;10.43;4.57;;;22.50;46.00;;;;;;5007320;28;20053;-56
2023/12/23 17:40:08;;;;;;;11.98;3.85;;;22.60;46.10;;;;;;5006855;28;20061;-56
2023/12/23 17:42:35;;;;;;;10.75;4.10;;;22.70;45.80;;;;;;5003939;28;20073;-57
2023/12/23 17:45:03;;;;;;;11.45;3.90;;;22.70;46.00;;;;;;5009415;28;20406;-62
2023/12/23 17:47:30;;;;;;;10.55;3.97;;;22.80;45.90;;;;;;5005266;28;20050;-58
2023/12/23 17:49:58;;;;;;;7.65;3.38;;;22.80;45.80;;;;;;5007498;28;20486;-60
2023/12/23 17:52:26;;;;;;;9.43;3.60;;;22.80;45.80;;;;;;5007962;28;20057;-60
2023/12/23 17:54:53;;;;;;;7.13;3.50;;;22.90;45.70;;;;;;5007618;28;20517;-57
2023/12/23 17:57:21;;;;;;;8.57;3.22;;;22.90;45.60;;;;;;5005724;28;20057;-57
2023/12/23 17:59:49;;;;;;;5.85;2.60;;;22.90;45.40;;;;;;5004931;28;20054;-57
2023/12/23 18:02:19;;;;;;;5.20;2.70;;;23.00;45.50;;;;;;5003087;28;20049;-57
2023/12/23 18:04:46;;;;;;;7.82;2.78;;;23.00;45.50;;;;;;5003590;28;20540;-51
2023/12/23 18:07:14;;;;;;;4.53;2.17;;;22.90;45.40;;;;;;5004284;28;20057;-57
2023/12/23 18:09:41;;;;;;;5.70;2.60;;;23.00;45.40;;;;;;5006513;28;20514;-59
2023/12/23 18:12:08;;;;;;;5.85;2.40;;;23.00;45.40;;;;;;5005236;28;20053;-54
2023/12/23 18:14:37;;;;;;;3.55;2.03;;;23.00;45.30;;;;;;5004672;28;20057;-52
2023/12/23 18:17:04;;;;;;;11.50;2.72;;;23.00;45.20;;;;;;5004782;28;20042;-54
2023/12/23 18:19:32;;;;;;;5.20;2.30;;;23.00;45.30;;;;;;5005600;28;20054;-58
2023/12/23 18:21:59;;;;;;;5.20;2.30;;;23.00;45.30;;;;;;5005753;28;20426;-58
2023/12/23 18:24:26;;;;;;;5.82;1.73;;;23.00;45.20;;;;;;5001909;28;20050;-56
2023/12/23 18:26:54;;;;;;;4.05;2.00;;;22.90;45.00;;;;;;5004026;28;20092;-55
2023/12/23 18:29:21;;;;;;;9.05;2.20;;;22.90;45.00;;;;;;4999984;28;20049;-52
2023/12/23 18:31:53;;;;;;;4.25;1.58;;;22.90;44.90;;;;;;5002394;28;20056;-58
2023/12/23 18:34:20;;;;;;;3.83;1.50;;;22.90;44.70;;;;;;5004538;28;20494;-58
2023/12/23 18:36:48;;;;;;;4.15;1.50;;;22.90;44.90;;;;;;5005138;28;20058;-57
2023/12/23 18:39:16;;;;;;;6.47;2.28;;;22.80;44.80;;;;;;5005522;28;20053;-56
2023/12/23 18:41:43;;;;;;;4.38;2.50;;;22.80;44.70;;;;;;5004723;28;20060;-56
2023/12/23 18:44:10;;;;;;;3.90;1.92;;;22.80;44.70;;;;;;5005625;28;20058;-55
2023/12/23 18:46:38;;;;;;;4.80;2.13;;;22.80;44.70;;;;;;5003951;28;20058;-56
2023/12/23 18:49:07;;;;;;;3.85;1.80;;;22.80;44.70;;;;;;5004808;28;20069;-52
2023/12/23 18:51:35;;;;;;;4.57;1.88;;;22.70;44.50;;;;;;5004656;28;20057;-56
2023/12/23 18:54:03;;;;;;;6.20;2.03;;;22.70;44.60;;;;;;5004531;28;20049;-56
2023/12/23 18:56:30;;;;;;;5.57;1.80;;;22.70;44.60;;;;;;5005396;28;20510;-54
2023/12/23 18:58:57;;;;;;;4.57;1.40;;;22.70;44.60;;;;;;5003697;28;20061;-56
2023/12/23 19:01:24;;;;;;;2.65;1.50;;;22.60;44.60;;;;;;5000861;28;20529;-56
2023/12/23 19:03:53;;;;;;;3.08;1.42;;;22.60;44.60;;;;;;5005127;28;20065;-57
2023/12/23 19:06:22;;;;;;;2.63;1.17;;;22.60;44.70;;;;;;5004021;28;20057;-60
2023/12/23 19:08:49;;;;;;;2.78;1.40;;;22.60;44.50;;;;;;5003600;28;20054;-61
2023/12/23 19:11:17;;;;;;;2.70;1.40;;;22.50;44.60;;;;;;5000085;28;20050;-60
2023/12/23 19:13:44;;;;;;;2.53;1.00;;;22.50;44.60;;;;;;5004066;28;20050;-59
2023/12/23 19:16:12;;;;;;;2.63;1.10;;;22.50;44.50;;;;;;4999207;28;20520;-60
2023/12/23 19:18:39;;;;;;;3.97;1.35;;;22.50;44.50;;;;;;5005637;28;20068;-59
2023/12/23 19:21:06;;;;;;;1.48;1.08;;;22.40;44.60;;;;;;5004497;28;20073;-55
2023/12/23 19:23:36;;;;;;;2.60;1.13;;;22.50;44.70;;;;;;5005290;28;20996;-57
2023/12/23 19:26:03;;;;;;;2.40;1.30;;;22.50;44.80;;;;;;5010594;28;20057;-59
2023/12/23 19:28:32;;;;;;;2.88;1.25;;;22.40;44.90;;;;;;5007004;28;20053;-59
2023/12/23 19:31:02;;;;;;;2.70;1.13;;;22.50;44.90;;;;;;5007912;28;20453;-57
2023/12/23 19:33:30;;;;;;;3.50;1.25;;;22.50;44.70;;;;;;5006657;28;20058;-59
2023/12/23 19:35:57;;;;;;;2.75;1.00;;;22.60;45.40;;;;;;5006120;28;20057;-60
2023/12/23 19:38:26;;;;;;;4.07;0.88;;;22.60;44.90;;;;;;5007994;28;20057;-60
2023/12/23 19:40:55;;;;;;;1.48;0.80;;;22.70;44.80;;;;;;5005043;28;20045;-57
2023/12/23 19:43:23;;;;;;;3.42;1.02;;;22.70;44.70;;;;;;5008350;28;20053;-59
2023/12/23 19:45:52;;;;;;;2.90;0.90;;;22.80;44.70;;;;;;5007910;28;20050;-55
2023/12/23 19:48:20;;;;;;;3.20;0.85;;;22.80;44.60;;;;;;5004179;28;20050;-61
2023/12/23 19:50:47;;;;;;;1.42;0.82;;;22.80;44.60;;;;;;5009848;28;20506;-58
2023/12/23 19:53:15;;;;;;;2.42;0.98;;;22.80;45.00;;;;;;5011063;28;20050;-58
2023/12/23 19:55:44;;;;;;;1.85;0.80;;;22.90;45.00;;;;;;5005281;28;20410;-58
2023/12/23 19:58:13;;;;;;;3.03;0.80;;;22.90;44.40;;;;;;5005547;28;20483;-58
2023/12/23 20:00:42;;;;;;;2.78;1.00;;;22.90;44.20;;;;;;5008701;28;20054;-59
2023/12/23 20:03:09;;;;;;;0.88;0.68;;;22.90;44.20;;;;;;5006383;28;20502;-60
2023/12/23 20:05:37;;;;;;;1.48;0.70;;;22.90;44.20;;;;;;5005719;28;20494;-58
2023/12/23 20:08:05;;;;;;;1.63;0.80;;;22.90;44.20;;;;;;5005617;28;20050;-57
2023/12/23 20:10:34;;;;;;;4.10;0.60;;;22.90;44.20;;;;;;5002075;28;20045;-58
2023/12/23 20:13:02;;;;;;;1.50;0.68;;;22.90;44.20;;;;;;5005766;28;20049;-55
2023/12/23 20:15:31;;;;;;;6.78;0.85;;;22.80;44.10;;;;;;5003679;28;20909;-53
2023/12/23 20:17:59;;;;;;;31.48;15.35;;;22.80;44.10;;;;;;5006522;28;20432;-50
2023/12/23 20:20:26;;;;;;;205.55;97.07;;;22.90;44.20;;;;;;5005672;28;20399;-50
2023/12/23 20:22:54;;;;;;;397.95;195.20;;;22.80;44.00;;;;;;5008926;28;20521;-48
2023/12/23 20:25:21;;;;;;;413.48;198.00;;;22.90;44.00;;;;;;5006557;28;20410;-50
2023/12/23 20:27:48;;;;;;;257.40;121.65;;;22.80;43.90;;;;;;5005959;28;20068;-56
2023/12/23 20:30:15;;;;;;;200.00;90.70;;;22.80;43.90;;;;;;5006852;28;20053;-57
2023/12/23 20:32:44;;;;;;;151.63;71.78;;;22.80;43.90;;;;;;5010731;28;20520;-58
2023/12/23 20:35:11;;;;;;;122.15;57.78;;;22.80;44.30;;;;;;5007743;28;20057;-57
2023/12/23 20:37:38;;;;;;;102.53;50.60;;;22.70;43.80;;;;;;5005543;28;20497;-56
2023/12/23 20:40:07;;;;;;;101.05;45.78;;;22.80;43.80;;;;;;5008556;28;20054;-57
2023/12/23 20:42:33;;;;;;;90.22;40.75;;;22.70;43.70;;;;;;5006476;28;20050;-57
2023/12/23 20:45:00;;;;;;;83.25;40.15;;;22.70;43.70;;;;;;5006117;28;20414;-57
2023/12/23 20:47:28;;;;;;;69.07;31.77;;;22.70;43.60;;;;;;5006697;28;20060;-57
2023/12/23 20:49:57;;;;;;;55.85;26.90;;;22.70;43.60;;;;;;5008262;28;20065;-57
2023/12/23 20:52:24;;;;;;;50.53;23.55;;;22.60;43.50;;;;;;5009866;28;20050;-56
2023/12/23 20:54:52;;;;;;;49.33;24.15;;;22.60;43.60;;;;;;5005439;28;20497;-56
2023/12/23 20:57:19;;;;;;;38.00;18.05;;;22.60;43.50;;;;;;5008062;28;20057;-53
2023/12/23 20:59:46;;;;;;;32.97;17.17;;;22.60;43.60;;;;;;5007223;28;20054;-56
2023/12/23 21:02:14;;;;;;;32.38;16.60;;;22.50;43.50;;;;;;5006476;28;20054;-57
2023/12/23 21:04:41;;;;;;;30.83;15.05;;;22.50;43.50;;;;;;5002284;28;20049;-57
2023/12/23 21:07:11;;;;;;;27.52;13.85;;;22.50;43.50;;;;;;5007795;28;20060;-57
2023/12/23 21:09:38;;;;;;;24.45;12.05;;;22.40;43.40;;;;;;5005699;28;20069;-57
2023/12/23 21:12:06;;;;;;;23.42;10.75;;;22.40;43.40;;;;;;5007602;28;20061;-54
2023/12/23 21:14:33;;;;;;;18.77;9.45;;;22.40;43.50;;;;;;5005950;28;20054;-57
2023/12/23 21:17:01;;;;;;;23.23;10.60;;;22.40;43.40;;;;;;5006874;28;20054;-56
2023/12/23 21:19:29;;;;;;;21.42;10.98;;;22.40;43.50;;;;;;5005462;28;20759;-55
2023/12/23 21:22:00;;;;;;;15.75;7.68;;;22.30;43.40;;;;;;5006558;28;20065;-57
2023/12/23 21:24:29;;;;;;;17.85;8.68;;;22.30;43.40;;;;;;5006775;28;20073;-57
2023/12/23 21:26:56;;;;;;;14.05;6.15;;;22.30;43.40;;;;;;5004907;28;20065;-57
2023/12/23 21:29:23;;;;;;;15.48;7.47;;;22.30;43.40;;;;;;5003253;28;20065;-55
2023/12/23 21:31:50;;;;;;;12.68;6.47;;;22.30;43.40;;;;;;5009030;28;20050;-56
2023/12/23 21:34:19;;;;;;;14.30;7.15;;;22.20;43.40;;;;;;5006064;28;20053;-53
2023/12/23 21:36:46;;;;;;;12.75;6.88;;;22.20;43.50;;;;;;5003545;28;20138;-57
2023/12/23 21:39:13;;;;;;;12.27;5.93;;;22.20;43.60;;;;;;5007275;28;20498;-56
2023/12/23 21:41:43;;;;;;;10.73;5.70;;;22.30;43.80;;;;;;5006472;28;20058;-57
2023/12/23 21:44:10;;;;;;;11.07;5.63;;;22.30;43.80;;;;;;5003872;28;20042;-57
2023/12/23 21:46:37;;;;;;;10.15;5.05;;;22.30;43.90;;;;;;5005434;28;20069;-60
2023/12/23 21:49:07;;;;;;;10.77;5.20;;;22.40;43.90;;;;;;5005400;28;20406;-61
2023/12/23 21:51:34;;;;;;;12.30;4.93;;;22.50;43.80;;;;;;5005515;28;20054;-60
2023/12/23 21:54:02;;;;;;;10.70;4.45;;;22.50;43.70;;;;;;5004040;28;20053;-56
2023/12/23 21:56:29;;;;;;;8.95;4.32;;;22.50;43.70;;;;;;5004000;28;20060;-53
2023/12/23 21:58:57;;;;;;;10.48;4.47;;;22.60;43.60;;;;;;5004969;28;20067;-57
2023/12/23 22:01:24;;;;;;;11.00;5.72;;;22.60;43.50;;;;;;5005619;28;20054;-59
2023/12/23 22:03:51;;;;;;;12.23;5.57;;;22.60;43.50;;;;;;5007218;28;20065;-54
2023/12/23 22:06:20;;;;;;;8.93;4.28;;;22.70;44.10;;;;;;5009379;28;20054;-57
2023/12/23 22:08:47;;;;;;;7.78;3.88;;;22.70;43.50;;;;;;5004387;28;20387;-61
2023/12/23 22:11:14;;;;;;;8.05;4.13;;;22.70;43.40;;;;;;5003861;28;20056;-60
2023/12/23 22:13:42;;;;;;;9.07;4.30;;;22.70;43.40;;;;;;5006527;28;20049;-60
2023/12/23 22:16:10;;;;;;;7.80;4.30;;;22.70;43.30;;;;;;5005479;28;20050;-60
2023/12/23 22:18:37;;;;;;;6.85;3.80;;;22.70;43.20;;;;;;5005062;28;20058;-60
2023/12/23 22:21:05;;;;;;;6.88;3.03;;;22.70;43.30;;;;;;5004126;28;20049;-60
2023/12/23 22:23:33;;;;;;;6.00;3.30;;;22.70;43.20;;;;;;5002500;28;20506;-60
2023/12/23 22:26:00;;;;;;;6.10;2.67;;;22.70;43.20;;;;;;5007452;28;20050;-61
2023/12/23 22:28:27;;;;;;;6.43;2.63;;;22.70;43.10;;;;;;5003798;28;20073;-59
2023/12/23 22:30:54;;;;;;;4.93;2.63;;;22.70;43.10;;;;;;5005447;28;20053;-60
2023/12/23 22:33:23;;;;;;;5.00;2.50;;;22.70;43.10;;;;;;5005282;28;20061;-60
2023/12/23 22:35:50;;;;;;;4.78;2.30;;;22.60;42.90;;;;;;5004462;28;20046;-60
2023/12/23 22:38:18;;;;;;;5.35;2.30;;;22.70;43.00;;;;;;5003426;28;20050;-58
2023/12/23 22:44:12;;;;;;;2.67;1.40;;;22.60;42.30;;;;;;5022604;28;20025;-60
2023/12/23 22:46:39;;;;;;;3.78;1.70;;;22.60;43.00;;;;;;5023985;28;20060;-60
2023/12/23 22:49:07;;;;;;;3.58;1.60;;;22.60;42.90;;;;;;5026064;28;20057;-60
2023/12/23 22:51:35;;;;;;;3.33;1.45;;;22.60;42.90;;;;;;5022424;28;20058;-59
2023/12/23 22:54:02;;;;;;;3.85;1.83;;;22.50;42.90;;;;;;5027456;28;20397;-60
2023/12/23 22:56:29;;;;;;;3.10;1.35;;;22.50;42.90;;;;;;5027965;28;20065;-56
2023/12/23 22:58:57;;;;;;;3.90;1.15;;;22.50;42.90;;;;;;5024608;28;20049;-57
2023/12/23 23:01:25;;;;;;;2.78;1.10;;;22.50;42.90;;;;;;5022047;28;20049;-57
2023/12/23 23:03:52;;;;;;;2.85;1.20;;;22.50;42.90;;;;;;5024805;28;20540;-56
2023/12/23 23:06:20;;;;;;;4.15;1.15;;;22.40;42.90;;;;;;5024250;28;20054;-56
2023/12/23 23:08:48;;;;;;;3.92;1.15;;;22.40;42.80;;;;;;5025786;28;20435;-57
2023/12/23 23:11:15;;;;;;;3.13;1.00;;;22.40;42.90;;;;;;5022550;28;20506;-57
2023/12/23 23:13:42;;;;;;;2.03;0.80;;;22.40;42.80;;;;;;5025797;28;20061;-54
2023/12/23 23:16:09;;;;;;;3.38;1.05;;;22.40;42.80;;;;;;5024248;28;20057;-56
2023/12/23 23:18:40;;;;;;;2.22;1.05;;;22.30;42.80;;;;;;5023283;28;20441;-54
2023/12/23 23:21:07;;;;;;;3.42;1.13;;;22.30;42.80;;;;;;5026785;28;21636;-56
2023/12/23 23:23:36;;;;;;;2.55;0.85;;;22.30;42.90;;;;;;5023440;28;20081;-57
2023/12/23 23:26:05;;;;;;;1.77;0.90;;;22.30;42.90;;;;;;5026074;28;20045;-56
2023/12/23 23:28:32;;;;;;;5.13;1.15;;;22.30;43.10;;;;;;5021302;28;20053;-57
2023/12/23 23:31:00;;;;;;;1.90;0.95;;;22.30;43.20;;;;;;5022986;28;20056;-56
2023/12/23 23:33:27;;;;;;;1.17;0.70;;;22.40;43.20;;;;;;5025161;28;20054;-55
2023/12/23 23:35:54;;;;;;;2.90;1.05;;;22.40;43.20;;;;;;5025808;28;20060;-56
2023/12/23 23:38:21;;;;;;;1.92;0.75;;;22.50;43.20;;;;;;5024830;28;20056;-57
2023/12/23 23:40:50;;;;;;;1.70;0.73;;;22.50;43.10;;;;;;5023702;28;20064;-54
2023/12/23 23:43:17;;;;;;;1.73;0.80;;;22.50;43.00;;;;;;5023207;28;20060;-57
2023/12/23 23:45:45;;;;;;;1.85;0.75;;;22.60;43.10;;;;;;5023834;28;20045;-56
2023/12/23 23:48:12;;;;;;;1.90;0.70;;;22.60;43.00;;;;;;5028425;28;20057;-54